sensor_id;sensor_type;location;lat;lon;timestamp;temperature;humidity
38221;DHT22;24023;51.280;7.148;2023-08-30T00:00:13;15.2;99.9
38221;DHT22;24023;51.280;7.148;2023-08-30T00:05:06;15.2;99.9
38221;DHT22;24023;51.280;7.148;2023-08-30T00:10:07;14.8;99.9
38221;DHT22;24023;51.280;7.148;2023-08-30T00:15:08;14.8;99.9
38221;DHT22;24023;51.280;7.148;2023-08-30T00:20:08;14.9;99.9
38221;DHT22;24023;51.280;7.148;2023-08-30T00:25:07;14.9;99.9
38221;DHT22;24023;51.280;7.148;2023-08-30T00:30:11;14.9;99.9
38221;DHT22;24023;51.280;7.148;2023-08-30T00:35:06;15.0;99.9
38221;DHT22;24023;51.280;7.148;2023-08-30T00:40:08;15.0;99.9
38221;DHT22;24023;51.280;7.148;2023-08-30T00:45:09;14.7;99.9
38221;DHT22;24023;51.280;7.148;2023-08-30T00:50:08;14.7;99.9
38221;DHT22;24023;51.280;7.148;2023-08-30T00:55:06;14.7;99.9
38221;DHT22;24023;51.280;7.148;2023-08-30T01:00:12;14.6;99.9
38221;DHT22;24023;51.280;7.148;2023-08-30T01:05:06;14.7;99.9
38221;DHT22;24023;51.280;7.148;2023-08-30T01:10:09;14.7;99.9
38221;DHT22;24023;51.280;7.148;2023-08-30T01:15:10;14.7;99.9
38221;DHT22;24023;51.280;7.148;2023-08-30T01:20:09;14.6;99.9
38221;DHT22;24023;51.280;7.148;2023-08-30T01:25:16;14.6;99.9
38221;DHT22;24023;51.280;7.148;2023-08-30T01:30:11;14.8;99.9
38221;DHT22;24023;51.280;7.148;2023-08-30T01:35:06;14.8;99.9
38221;DHT22;24023;51.280;7.148;2023-08-30T01:40:09;14.8;99.9
38221;DHT22;24023;51.280;7.148;2023-08-30T01:45:10;14.7;99.9
38221;DHT22;24023;51.280;7.148;2023-08-30T01:50:09;14.7;99.9
38221;DHT22;24023;51.280;7.148;2023-08-30T01:55:08;14.8;99.9
38221;DHT22;24023;51.280;7.148;2023-08-30T02:00:13;14.8;99.9
38221;DHT22;24023;51.280;7.148;2023-08-30T02:05:06;15.0;99.9
38221;DHT22;24023;51.280;7.148;2023-08-30T02:10:10;15.0;99.9
38221;DHT22;24023;51.280;7.148;2023-08-30T02:15:08;15.0;99.9
38221;DHT22;24023;51.280;7.148;2023-08-30T02:20:07;15.0;99.9
38221;DHT22;24023;51.280;7.148;2023-08-30T02:25:06;14.9;99.9
38221;DHT22;24023;51.280;7.148;2023-08-30T02:30:09;14.9;99.9
38221;DHT22;24023;51.280;7.148;2023-08-30T02:35:06;14.9;99.9
38221;DHT22;24023;51.280;7.148;2023-08-30T02:40:08;15.1;99.9
38221;DHT22;24023;51.280;7.148;2023-08-30T02:45:11;15.1;99.9
38221;DHT22;24023;51.280;7.148;2023-08-30T02:50:08;14.9;99.9
38221;DHT22;24023;51.280;7.148;2023-08-30T02:55:06;14.9;99.9
38221;DHT22;24023;51.280;7.148;2023-08-30T03:00:15;14.9;99.9
38221;DHT22;24023;51.280;7.148;2023-08-30T03:05:06;14.4;99.9
38221;DHT22;24023;51.280;7.148;2023-08-30T03:10:07;14.4;99.9
38221;DHT22;24023;51.280;7.148;2023-08-30T03:15:08;14.3;99.9
38221;DHT22;24023;51.280;7.148;2023-08-30T03:20:08;14.3;99.9
38221;DHT22;24023;51.280;7.148;2023-08-30T03:25:06;14.3;99.9
38221;DHT22;24023;51.280;7.148;2023-08-30T03:30:10;14.3;99.9
38221;DHT22;24023;51.280;7.148;2023-08-30T03:35:07;14.3;99.9
38221;DHT22;24023;51.280;7.148;2023-08-30T03:40:08;14.1;99.9
38221;DHT22;24023;51.280;7.148;2023-08-30T03:45:09;14.1;99.9
38221;DHT22;24023;51.280;7.148;2023-08-30T03:50:07;13.9;99.9
38221;DHT22;24023;51.280;7.148;2023-08-30T03:55:07;13.9;99.9
38221;DHT22;24023;51.280;7.148;2023-08-30T04:00:14;13.9;99.9
38221;DHT22;24023;51.280;7.148;2023-08-30T04:05:09;14.3;99.9
38221;DHT22;24023;51.280;7.148;2023-08-30T04:10:08;14.3;99.9
38221;DHT22;24023;51.280;7.148;2023-08-30T04:15:07;14.0;99.9
38221;DHT22;24023;51.280;7.148;2023-08-30T04:20:08;14.0;99.9
38221;DHT22;24023;51.280;7.148;2023-08-30T04:25:10;14.0;99.9
38221;DHT22;24023;51.280;7.148;2023-08-30T04:30:11;13.9;99.9
38221;DHT22;24023;51.280;7.148;2023-08-30T04:35:07;13.9;99.9
38221;DHT22;24023;51.280;7.148;2023-08-30T04:40:09;13.7;99.9
38221;DHT22;24023;51.280;7.148;2023-08-30T04:45:10;13.7;99.9
38221;DHT22;24023;51.280;7.148;2023-08-30T04:50:08;13.7;99.9
38221;DHT22;24023;51.280;7.148;2023-08-30T04:55:07;13.8;99.9
38221;DHT22;24023;51.280;7.148;2023-08-30T05:00:13;13.8;99.9
38221;DHT22;24023;51.280;7.148;2023-08-30T05:05:08;14.0;99.9
38221;DHT22;24023;51.280;7.148;2023-08-30T05:10:08;14.0;99.9
38221;DHT22;24023;51.280;7.148;2023-08-30T05:15:08;13.7;99.9
38221;DHT22;24023;51.280;7.148;2023-08-30T05:20:08;13.7;99.9
38221;DHT22;24023;51.280;7.148;2023-08-30T05:25:06;13.9;99.9
38221;DHT22;24023;51.280;7.148;2023-08-30T05:30:10;13.9;99.9
38221;DHT22;24023;51.280;7.148;2023-08-30T05:35:06;13.9;99.9
38221;DHT22;24023;51.280;7.148;2023-08-30T05:40:09;13.9;99.9
38221;DHT22;24023;51.280;7.148;2023-08-30T05:45:09;13.9;99.9
38221;DHT22;24023;51.280;7.148;2023-08-30T05:50:09;14.1;99.9
38221;DHT22;24023;51.280;7.148;2023-08-30T05:55:06;14.1;99.9
38221;DHT22;24023;51.280;7.148;2023-08-30T06:00:14;14.1;99.9
38221;DHT22;24023;51.280;7.148;2023-08-30T06:05:06;14.4;99.9
38221;DHT22;24023;51.280;7.148;2023-08-30T06:10:09;14.4;99.9
38221;DHT22;24023;51.280;7.148;2023-08-30T06:15:08;15.1;99.9
38221;DHT22;24023;51.280;7.148;2023-08-30T06:20:08;15.1;99.9
38221;DHT22;24023;51.280;7.148;2023-08-30T06:25:07;15.1;99.9
38221;DHT22;24023;51.280;7.148;2023-08-30T06:30:10;15.4;99.9
38221;DHT22;24023;51.280;7.148;2023-08-30T06:35:06;15.4;99.9
38221;DHT22;24023;51.280;7.148;2023-08-30T06:40:09;15.8;99.9
38221;DHT22;24023;51.280;7.148;2023-08-30T06:45:10;15.8;99.9
38221;DHT22;24023;51.280;7.148;2023-08-30T06:50:10;15.8;99.9
38221;DHT22;24023;51.280;7.148;2023-08-30T06:55:06;16.0;99.9
38221;DHT22;24023;51.280;7.148;2023-08-30T07:00:13;16.0;99.9
38221;DHT22;24023;51.280;7.148;2023-08-30T07:05:07;16.5;99.9
38221;DHT22;24023;51.280;7.148;2023-08-30T07:10:08;16.5;99.9
38221;DHT22;24023;51.280;7.148;2023-08-30T07:15:08;16.7;99.8
38221;DHT22;24023;51.280;7.148;2023-08-30T07:20:10;16.7;99.8
38221;DHT22;24023;51.280;7.148;2023-08-30T07:25:07;16.7;99.8
38221;DHT22;24023;51.280;7.148;2023-08-30T07:30:10;16.9;99.2
38221;DHT22;24023;51.280;7.148;2023-08-30T07:35:06;17.2;98.2
38221;DHT22;24023;51.280;7.148;2023-08-30T07:40:09;17.2;98.2
38221;DHT22;24023;51.280;7.148;2023-08-30T07:45:09;17.2;98.2
38221;DHT22;24023;51.280;7.148;2023-08-30T07:50:08;17.4;97.1
38221;DHT22;24023;51.280;7.148;2023-08-30T07:55:06;17.4;97.1
38221;DHT22;24023;51.280;7.148;2023-08-30T08:00:13;17.5;96.9
38221;DHT22;24023;51.280;7.148;2023-08-30T08:05:06;17.5;96.9
38221;DHT22;24023;51.280;7.148;2023-08-30T08:10:08;17.5;96.9
38221;DHT22;24023;51.280;7.148;2023-08-30T08:15:08;17.7;96.0
38221;DHT22;24023;51.280;7.148;2023-08-30T08:20:08;17.7;96.0
38221;DHT22;24023;51.280;7.148;2023-08-30T08:25:06;18.0;94.7
38221;DHT22;24023;51.280;7.148;2023-08-30T08:30:11;18.0;94.7
38221;DHT22;24023;51.280;7.148;2023-08-30T08:35:06;18.3;95.2
38221;DHT22;24023;51.280;7.148;2023-08-30T08:40:10;18.3;95.2
38221;DHT22;24023;51.280;7.148;2023-08-30T08:45:10;18.3;95.2
38221;DHT22;24023;51.280;7.148;2023-08-30T08:50:09;18.2;95.0
38221;DHT22;24023;51.280;7.148;2023-08-30T08:55:06;18.2;95.0
38221;DHT22;24023;51.280;7.148;2023-08-30T09:00:13;19.0;94.5
38221;DHT22;24023;51.280;7.148;2023-08-30T09:05:07;19.0;94.5
38221;DHT22;24023;51.280;7.148;2023-08-30T09:10:08;19.0;94.5
38221;DHT22;24023;51.280;7.148;2023-08-30T09:15:08;19.0;94.3
38221;DHT22;24023;51.280;7.148;2023-08-30T09:20:09;19.0;94.3
38221;DHT22;24023;51.280;7.148;2023-08-30T09:25:08;19.0;93.5
38221;DHT22;24023;51.280;7.148;2023-08-30T09:30:11;19.0;93.5
38221;DHT22;24023;51.280;7.148;2023-08-30T09:35:06;19.0;93.5
38221;DHT22;24023;51.280;7.148;2023-08-30T09:40:08;19.9;91.9
38221;DHT22;24023;51.280;7.148;2023-08-30T09:45:17;19.9;91.9
38221;DHT22;24023;51.280;7.148;2023-08-30T09:50:08;19.3;93.0
38221;DHT22;24023;51.280;7.148;2023-08-30T09:55:06;19.3;93.0
38221;DHT22;24023;51.280;7.148;2023-08-30T10:00:14;19.3;93.0
38221;DHT22;24023;51.280;7.148;2023-08-30T10:05:06;18.4;95.3
38221;DHT22;24023;51.280;7.148;2023-08-30T10:10:08;18.4;95.3
38221;DHT22;24023;51.280;7.148;2023-08-30T10:15:07;18.9;94.5
38221;DHT22;24023;51.280;7.148;2023-08-30T10:20:16;18.3;96.9
38221;DHT22;24023;51.280;7.148;2023-08-30T10:25:10;18.3;96.9
38221;DHT22;24023;51.280;7.148;2023-08-30T10:30:09;17.6;99.1
38221;DHT22;24023;51.280;7.148;2023-08-30T10:35:06;17.8;99.3
38221;DHT22;24023;51.280;7.148;2023-08-30T10:40:08;17.8;99.3
38221;DHT22;24023;51.280;7.148;2023-08-30T10:45:09;17.8;99.3
38221;DHT22;24023;51.280;7.148;2023-08-30T10:50:09;17.4;99.9
38221;DHT22;24023;51.280;7.148;2023-08-30T10:55:07;17.4;99.9
38221;DHT22;24023;51.280;7.148;2023-08-30T11:00:20;16.9;99.9
38221;DHT22;24023;51.280;7.148;2023-08-30T11:05:08;16.9;99.9
38221;DHT22;24023;51.280;7.148;2023-08-30T11:10:10;16.9;99.9
38221;DHT22;24023;51.280;7.148;2023-08-30T11:15:09;16.5;99.9
38221;DHT22;24023;51.280;7.148;2023-08-30T11:20:09;16.5;99.9
38221;DHT22;24023;51.280;7.148;2023-08-30T11:25:09;16.4;99.9
38221;DHT22;24023;51.280;7.148;2023-08-30T11:30:11;16.4;99.9
38221;DHT22;24023;51.280;7.148;2023-08-30T11:35:07;16.3;99.9
38221;DHT22;24023;51.280;7.148;2023-08-30T11:40:08;16.3;99.9
38221;DHT22;24023;51.280;7.148;2023-08-30T11:45:09;16.0;99.9
38221;DHT22;24023;51.280;7.148;2023-08-30T11:50:10;16.0;99.9
38221;DHT22;24023;51.280;7.148;2023-08-30T11:55:07;15.9;99.9
38221;DHT22;24023;51.280;7.148;2023-08-30T12:00:13;15.9;99.9
38221;DHT22;24023;51.280;7.148;2023-08-30T12:05:10;15.9;99.9
38221;DHT22;24023;51.280;7.148;2023-08-30T12:10:09;15.7;99.9
38221;DHT22;24023;51.280;7.148;2023-08-30T12:15:09;15.7;99.9
38221;DHT22;24023;51.280;7.148;2023-08-30T12:20:15;16.0;99.9
38221;DHT22;24023;51.280;7.148;2023-08-30T12:25:15;16.0;99.9
38221;DHT22;24023;51.280;7.148;2023-08-30T12:30:10;16.0;99.9
38221;DHT22;24023;51.280;7.148;2023-08-30T12:35:06;16.2;99.9
38221;DHT22;24023;51.280;7.148;2023-08-30T12:40:09;16.2;99.9
38221;DHT22;24023;51.280;7.148;2023-08-30T12:45:09;16.1;99.9
38221;DHT22;24023;51.280;7.148;2023-08-30T12:50:07;16.1;99.9
38221;DHT22;24023;51.280;7.148;2023-08-30T12:55:07;16.1;99.9
38221;DHT22;24023;51.280;7.148;2023-08-30T13:00:13;16.1;99.9
38221;DHT22;24023;51.280;7.148;2023-08-30T13:05:06;16.1;99.9
38221;DHT22;24023;51.280;7.148;2023-08-30T13:10:08;16.4;99.9
38221;DHT22;24023;51.280;7.148;2023-08-30T13:15:09;16.4;99.9
38221;DHT22;24023;51.280;7.148;2023-08-30T13:20:09;16.4;99.9
38221;DHT22;24023;51.280;7.148;2023-08-30T13:25:06;16.4;99.9
38221;DHT22;24023;51.280;7.148;2023-08-30T13:30:10;16.4;99.9
38221;DHT22;24023;51.280;7.148;2023-08-30T13:35:06;15.9;99.9
38221;DHT22;24023;51.280;7.148;2023-08-30T13:40:08;15.9;99.9
38221;DHT22;24023;51.280;7.148;2023-08-30T13:45:10;16.2;99.9
38221;DHT22;24023;51.280;7.148;2023-08-30T13:50:08;16.2;99.9
38221;DHT22;24023;51.280;7.148;2023-08-30T13:55:06;16.2;99.9
38221;DHT22;24023;51.280;7.148;2023-08-30T14:00:13;16.3;99.9
38221;DHT22;24023;51.280;7.148;2023-08-30T14:05:07;16.3;99.9
38221;DHT22;24023;51.280;7.148;2023-08-30T14:10:08;16.3;99.9
38221;DHT22;24023;51.280;7.148;2023-08-30T14:15:08;16.3;99.9
38221;DHT22;24023;51.280;7.148;2023-08-30T14:20:09;16.3;99.9
38221;DHT22;24023;51.280;7.148;2023-08-30T14:25:06;16.5;99.9
38221;DHT22;24023;51.280;7.148;2023-08-30T14:30:09;16.5;99.9
38221;DHT22;24023;51.280;7.148;2023-08-30T14:35:07;16.6;99.9
38221;DHT22;24023;51.280;7.148;2023-08-30T14:40:08;16.6;99.9
38221;DHT22;24023;51.280;7.148;2023-08-30T14:45:09;16.6;99.9
38221;DHT22;24023;51.280;7.148;2023-08-30T14:50:09;16.2;99.9
38221;DHT22;24023;51.280;7.148;2023-08-30T14:55:07;16.2;99.9
38221;DHT22;24023;51.280;7.148;2023-08-30T15:00:13;16.1;99.9
38221;DHT22;24023;51.280;7.148;2023-08-30T15:05:07;16.1;99.9
38221;DHT22;24023;51.280;7.148;2023-08-30T15:10:07;16.1;99.9
38221;DHT22;24023;51.280;7.148;2023-08-30T15:15:08;15.7;99.9
38221;DHT22;24023;51.280;7.148;2023-08-30T15:20:09;15.7;99.9
38221;DHT22;24023;51.280;7.148;2023-08-30T15:25:07;15.7;99.9
38221;DHT22;24023;51.280;7.148;2023-08-30T15:30:10;15.7;99.9
38221;DHT22;24023;51.280;7.148;2023-08-30T15:35:07;15.7;99.9
38221;DHT22;24023;51.280;7.148;2023-08-30T15:40:10;15.7;99.9
38221;DHT22;24023;51.280;7.148;2023-08-30T15:45:09;15.7;99.9
38221;DHT22;24023;51.280;7.148;2023-08-30T15:50:08;16.4;99.9
38221;DHT22;24023;51.280;7.148;2023-08-30T15:55:06;16.4;99.9
38221;DHT22;24023;51.280;7.148;2023-08-30T16:00:14;16.5;99.9
38221;DHT22;24023;51.280;7.148;2023-08-30T16:05:07;16.5;99.9
38221;DHT22;24023;51.280;7.148;2023-08-30T16:10:08;16.5;99.9
38221;DHT22;24023;51.280;7.148;2023-08-30T16:15:07;16.5;99.9
38221;DHT22;24023;51.280;7.148;2023-08-30T16:20:09;16.5;99.9
38221;DHT22;24023;51.280;7.148;2023-08-30T16:25:07;16.7;99.9
38221;DHT22;24023;51.280;7.148;2023-08-30T16:30:10;16.7;99.9
38221;DHT22;24023;51.280;7.148;2023-08-30T16:35:07;16.7;99.9
38221;DHT22;24023;51.280;7.148;2023-08-30T16:40:08;16.6;99.9
38221;DHT22;24023;51.280;7.148;2023-08-30T16:45:09;16.6;99.9
38221;DHT22;24023;51.280;7.148;2023-08-30T16:50:07;16.6;99.9
38221;DHT22;24023;51.280;7.148;2023-08-30T16:55:07;16.4;99.9
38221;DHT22;24023;51.280;7.148;2023-08-30T17:00:15;16.4;99.9
38221;DHT22;24023;51.280;7.148;2023-08-30T17:05:08;16.4;99.9
38221;DHT22;24023;51.280;7.148;2023-08-30T17:10:08;16.3;99.9
38221;DHT22;24023;51.280;7.148;2023-08-30T17:15:08;16.3;99.9
38221;DHT22;24023;51.280;7.148;2023-08-30T17:20:08;16.3;99.9
38221;DHT22;24023;51.280;7.148;2023-08-30T17:25:06;16.2;99.9
38221;DHT22;24023;51.280;7.148;2023-08-30T17:30:10;16.2;99.9
38221;DHT22;24023;51.280;7.148;2023-08-30T17:35:08;16.2;99.9
38221;DHT22;24023;51.280;7.148;2023-08-30T17:40:09;16.3;99.9
38221;DHT22;24023;51.280;7.148;2023-08-30T17:45:10;16.3;99.9
38221;DHT22;24023;51.280;7.148;2023-08-30T17:50:08;16.3;99.9
38221;DHT22;24023;51.280;7.148;2023-08-30T17:55:07;16.3;99.9
38221;DHT22;24023;51.280;7.148;2023-08-30T18:00:15;16.3;99.9
38221;DHT22;24023;51.280;7.148;2023-08-30T18:05:07;16.4;99.9
38221;DHT22;24023;51.280;7.148;2023-08-30T18:10:08;16.4;99.9
38221;DHT22;24023;51.280;7.148;2023-08-30T18:15:09;16.2;99.9
38221;DHT22;24023;51.280;7.148;2023-08-30T18:20:09;16.2;99.9
38221;DHT22;24023;51.280;7.148;2023-08-30T18:25:06;16.2;99.9
38221;DHT22;24023;51.280;7.148;2023-08-30T18:30:11;16.4;99.9
38221;DHT22;24023;51.280;7.148;2023-08-30T18:35:07;16.4;99.9
38221;DHT22;24023;51.280;7.148;2023-08-30T18:40:10;16.1;99.9
38221;DHT22;24023;51.280;7.148;2023-08-30T18:45:10;16.1;99.9
38221;DHT22;24023;51.280;7.148;2023-08-30T18:50:09;16.1;99.9
38221;DHT22;24023;51.280;7.148;2023-08-30T18:55:07;16.1;99.9
38221;DHT22;24023;51.280;7.148;2023-08-30T19:00:16;16.1;99.9
38221;DHT22;24023;51.280;7.148;2023-08-30T19:05:07;15.8;99.9
38221;DHT22;24023;51.280;7.148;2023-08-30T19:10:09;15.8;99.9
38221;DHT22;24023;51.280;7.148;2023-08-30T19:15:09;15.8;99.9
38221;DHT22;24023;51.280;7.148;2023-08-30T19:20:08;15.3;99.9
38221;DHT22;24023;51.280;7.148;2023-08-30T19:25:06;15.3;99.9
38221;DHT22;24023;51.280;7.148;2023-08-30T19:30:10;15.3;99.9
38221;DHT22;24023;51.280;7.148;2023-08-30T19:35:06;15.3;99.9
38221;DHT22;24023;51.280;7.148;2023-08-30T19:40:08;14.5;99.9
38221;DHT22;24023;51.280;7.148;2023-08-30T19:45:09;14.5;99.9
38221;DHT22;24023;51.280;7.148;2023-08-30T19:50:08;14.5;99.9
38221;DHT22;24023;51.280;7.148;2023-08-30T19:55:06;14.4;99.9
38221;DHT22;24023;51.280;7.148;2023-08-30T20:00:13;14.4;99.9
38221;DHT22;24023;51.280;7.148;2023-08-30T20:05:06;14.4;99.9
38221;DHT22;24023;51.280;7.148;2023-08-30T20:10:08;14.4;99.9
38221;DHT22;24023;51.280;7.148;2023-08-30T20:15:08;14.4;99.9
38221;DHT22;24023;51.280;7.148;2023-08-30T20:20:08;14.0;99.9
38221;DHT22;24023;51.280;7.148;2023-08-30T20:25:06;14.0;99.9
38221;DHT22;24023;51.280;7.148;2023-08-30T20:30:10;14.1;99.9
38221;DHT22;24023;51.280;7.148;2023-08-30T20:35:07;14.1;99.9
38221;DHT22;24023;51.280;7.148;2023-08-30T20:40:08;14.1;99.9
38221;DHT22;24023;51.280;7.148;2023-08-30T20:45:09;14.0;99.9
38221;DHT22;24023;51.280;7.148;2023-08-30T20:50:10;14.0;99.9
38221;DHT22;24023;51.280;7.148;2023-08-30T20:55:07;13.8;99.9
38221;DHT22;24023;51.280;7.148;2023-08-30T21:00:13;13.8;99.9
38221;DHT22;24023;51.280;7.148;2023-08-30T21:05:06;14.3;99.9
38221;DHT22;24023;51.280;7.148;2023-08-30T21:10:08;14.3;99.9
38221;DHT22;24023;51.280;7.148;2023-08-30T21:15:08;14.3;99.9
38221;DHT22;24023;51.280;7.148;2023-08-30T21:20:08;14.0;99.9
38221;DHT22;24023;51.280;7.148;2023-08-30T21:25:07;13.9;99.9
38221;DHT22;24023;51.280;7.148;2023-08-30T21:30:11;13.9;99.9
38221;DHT22;24023;51.280;7.148;2023-08-30T21:35:06;13.9;99.9
38221;DHT22;24023;51.280;7.148;2023-08-30T21:40:09;13.7;99.9
38221;DHT22;24023;51.280;7.148;2023-08-30T21:45:09;13.6;99.9
38221;DHT22;24023;51.280;7.148;2023-08-30T21:50:08;13.6;99.9
38221;DHT22;24023;51.280;7.148;2023-08-30T21:55:09;13.6;99.9
38221;DHT22;24023;51.280;7.148;2023-08-30T22:00:21;13.6;99.9
38221;DHT22;24023;51.280;7.148;2023-08-30T22:05:08;13.5;99.9
38221;DHT22;24023;51.280;7.148;2023-08-30T22:10:08;13.5;99.9
38221;DHT22;24023;51.280;7.148;2023-08-30T22:15:12;13.5;99.9
38221;DHT22;24023;51.280;7.148;2023-08-30T22:20:10;13.8;99.9
38221;DHT22;24023;51.280;7.148;2023-08-30T22:25:08;13.8;99.9
38221;DHT22;24023;51.280;7.148;2023-08-30T22:30:10;13.3;99.9
38221;DHT22;24023;51.280;7.148;2023-08-30T22:35:07;13.3;99.9
38221;DHT22;24023;51.280;7.148;2023-08-30T22:40:09;13.3;99.9
38221;DHT22;24023;51.280;7.148;2023-08-30T22:45:09;13.1;99.9
38221;DHT22;24023;51.280;7.148;2023-08-30T22:50:08;13.1;99.9
38221;DHT22;24023;51.280;7.148;2023-08-30T22:55:06;13.1;99.9
38221;DHT22;24023;51.280;7.148;2023-08-30T23:00:12;13.1;99.9
38221;DHT22;24023;51.280;7.148;2023-08-30T23:05:07;13.1;99.9
38221;DHT22;24023;51.280;7.148;2023-08-30T23:10:08;13.2;99.9
38221;DHT22;24023;51.280;7.148;2023-08-30T23:15:10;13.2;99.9
38221;DHT22;24023;51.280;7.148;2023-08-30T23:20:09;12.8;99.9
38221;DHT22;24023;51.280;7.148;2023-08-30T23:25:07;12.8;99.9
38221;DHT22;24023;51.280;7.148;2023-08-30T23:30:10;12.8;99.9
38221;DHT22;24023;51.280;7.148;2023-08-30T23:35:06;13.0;99.9
38221;DHT22;24023;51.280;7.148;2023-08-30T23:40:09;13.0;99.9
38221;DHT22;24023;51.280;7.148;2023-08-30T23:45:09;13.3;99.9
38221;DHT22;24023;51.280;7.148;2023-08-30T23:50:09;13.3;99.9
38221;DHT22;24023;51.280;7.148;2023-08-30T23:55:06;13.3;99.9
